sensor_id;sensor_type;location;lat;lon;timestamp;pressure;altitude;pressure_sealevel;temperature;humidity
37078;BME280;22989;55.998;37.212;2023-04-26T00:00:12;116983.66;;;-145.39;50.74
37078;BME280;22989;55.998;37.212;2023-04-26T00:02:39;116983.66;;;-145.39;50.59
37078;BME280;22989;55.998;37.212;2023-04-26T00:05:05;116983.66;;;-145.39;50.74
37078;BME280;22989;55.998;37.212;2023-04-26T00:07:31;116983.66;;;-145.39;50.72
37078;BME280;22989;55.998;37.212;2023-04-26T00:09:57;116983.66;;;-145.39;50.87
37078;BME280;22989;55.998;37.212;2023-04-26T00:12:22;116983.66;;;-145.39;51.33
37078;BME280;22989;55.998;37.212;2023-04-26T00:14:48;116983.66;;;-145.39;51.83
37078;BME280;22989;55.998;37.212;2023-04-26T00:17:13;116983.66;;;-145.39;52.40
37078;BME280;22989;55.998;37.212;2023-04-26T00:19:39;116983.66;;;-145.39;52.57
37078;BME280;22989;55.998;37.212;2023-04-26T00:22:05;116983.66;;;-145.39;52.67
37078;BME280;22989;55.998;37.212;2023-04-26T00:24:30;116983.66;;;-145.39;52.96
37078;BME280;22989;55.998;37.212;2023-04-26T00:26:56;116983.66;;;-145.39;53.06
37078;BME280;22989;55.998;37.212;2023-04-26T00:29:22;116983.66;;;-145.39;53.37
37078;BME280;22989;55.998;37.212;2023-04-26T00:31:47;116983.66;;;-145.39;53.56
37078;BME280;22989;55.998;37.212;2023-04-26T00:34:13;116983.66;;;-145.39;53.86
37078;BME280;22989;55.998;37.212;2023-04-26T00:36:39;116983.66;;;-145.39;54.03
37078;BME280;22989;55.998;37.212;2023-04-26T00:39:04;116983.66;;;-145.39;54.36
37078;BME280;22989;55.998;37.212;2023-04-26T00:41:29;116983.66;;;-145.39;54.46
37078;BME280;22989;55.998;37.212;2023-04-26T00:43:55;116983.66;;;-145.39;54.51
37078;BME280;22989;55.998;37.212;2023-04-26T00:46:20;116983.66;;;-145.39;54.76
37078;BME280;22989;55.998;37.212;2023-04-26T00:48:46;116983.66;;;-145.39;54.90
37078;BME280;22989;55.998;37.212;2023-04-26T00:51:13;116983.66;;;-145.39;54.95
37078;BME280;22989;55.998;37.212;2023-04-26T00:53:38;116983.66;;;-145.39;54.96
37078;BME280;22989;55.998;37.212;2023-04-26T00:56:13;116983.66;;;-145.39;54.95
37078;BME280;22989;55.998;37.212;2023-04-26T00:58:40;116983.66;;;-145.39;54.98
37078;BME280;22989;55.998;37.212;2023-04-26T01:01:06;116983.66;;;-145.39;55.15
37078;BME280;22989;55.998;37.212;2023-04-26T01:03:32;116983.66;;;-145.39;55.18
37078;BME280;22989;55.998;37.212;2023-04-26T01:05:59;116983.66;;;-145.39;55.26
37078;BME280;22989;55.998;37.212;2023-04-26T01:08:25;116983.66;;;-145.39;55.23
37078;BME280;22989;55.998;37.212;2023-04-26T01:10:50;116983.66;;;-145.39;55.30
37078;BME280;22989;55.998;37.212;2023-04-26T01:13:16;116983.66;;;-145.39;55.37
37078;BME280;22989;55.998;37.212;2023-04-26T01:15:44;116983.66;;;-145.39;55.49
37078;BME280;22989;55.998;37.212;2023-04-26T01:18:10;116983.66;;;-145.39;55.74
37078;BME280;22989;55.998;37.212;2023-04-26T01:20:35;116983.66;;;-145.39;55.72
37078;BME280;22989;55.998;37.212;2023-04-26T01:23:02;116983.66;;;-145.39;55.57
37078;BME280;22989;55.998;37.212;2023-04-26T01:25:27;116983.66;;;-145.39;55.58
37078;BME280;22989;55.998;37.212;2023-04-26T01:27:53;116983.66;;;-145.39;55.77
37078;BME280;22989;55.998;37.212;2023-04-26T01:30:18;116983.66;;;-145.39;55.79
37078;BME280;22989;55.998;37.212;2023-04-26T01:32:43;116983.66;;;-145.39;55.81
37078;BME280;22989;55.998;37.212;2023-04-26T01:35:09;116983.66;;;-145.39;55.95
37078;BME280;22989;55.998;37.212;2023-04-26T01:37:34;116983.66;;;-145.39;56.22
37078;BME280;22989;55.998;37.212;2023-04-26T01:40:00;116983.66;;;-145.39;56.39
37078;BME280;22989;55.998;37.212;2023-04-26T01:42:25;116983.66;;;-145.39;56.55
37078;BME280;22989;55.998;37.212;2023-04-26T01:44:51;116983.66;;;-145.39;56.71
37078;BME280;22989;55.998;37.212;2023-04-26T01:47:16;116983.66;;;-145.39;56.83
37078;BME280;22989;55.998;37.212;2023-04-26T01:49:43;116983.66;;;-145.39;57.01
37078;BME280;22989;55.998;37.212;2023-04-26T01:52:09;116983.66;;;-145.39;56.91
37078;BME280;22989;55.998;37.212;2023-04-26T01:54:34;116983.66;;;-145.39;56.99
37078;BME280;22989;55.998;37.212;2023-04-26T01:57:00;116983.66;;;-145.39;57.19
37078;BME280;22989;55.998;37.212;2023-04-26T01:59:26;116983.66;;;-145.39;57.36
37078;BME280;22989;55.998;37.212;2023-04-26T02:01:55;116983.66;;;-145.39;57.41
37078;BME280;22989;55.998;37.212;2023-04-26T02:04:20;116983.66;;;-145.39;57.39
37078;BME280;22989;55.998;37.212;2023-04-26T02:06:46;116983.66;;;-145.39;57.53
37078;BME280;22989;55.998;37.212;2023-04-26T02:09:11;116983.66;;;-145.39;57.41
37078;BME280;22989;55.998;37.212;2023-04-26T02:11:38;116983.66;;;-145.39;57.48
37078;BME280;22989;55.998;37.212;2023-04-26T02:14:04;116983.66;;;-145.39;57.61
37078;BME280;22989;55.998;37.212;2023-04-26T02:16:29;116983.66;;;-145.39;57.67
37078;BME280;22989;55.998;37.212;2023-04-26T02:18:57;116983.66;;;-145.39;57.71
37078;BME280;22989;55.998;37.212;2023-04-26T02:21:23;116983.66;;;-145.39;57.46
37078;BME280;22989;55.998;37.212;2023-04-26T02:23:48;116983.66;;;-145.39;57.63
37078;BME280;22989;55.998;37.212;2023-04-26T02:26:14;116983.66;;;-145.39;57.27
37078;BME280;22989;55.998;37.212;2023-04-26T02:28:41;116983.66;;;-145.39;57.57
37078;BME280;22989;55.998;37.212;2023-04-26T02:31:07;116983.66;;;-145.39;57.54
37078;BME280;22989;55.998;37.212;2023-04-26T02:33:33;116983.66;;;-145.39;57.76
37078;BME280;22989;55.998;37.212;2023-04-26T02:36:01;116983.66;;;-145.39;57.65
37078;BME280;22989;55.998;37.212;2023-04-26T02:38:26;116983.66;;;-145.39;57.58
37078;BME280;22989;55.998;37.212;2023-04-26T02:40:59;116983.66;;;-145.39;57.75
37078;BME280;22989;55.998;37.212;2023-04-26T02:43:24;116983.66;;;-145.39;57.48
37078;BME280;22989;55.998;37.212;2023-04-26T02:45:50;116983.66;;;-145.39;57.18
37078;BME280;22989;55.998;37.212;2023-04-26T02:48:15;116983.66;;;-145.39;57.21
37078;BME280;22989;55.998;37.212;2023-04-26T02:50:41;116983.66;;;-145.39;57.07
37078;BME280;22989;55.998;37.212;2023-04-26T02:53:07;116983.66;;;-145.39;57.27
37078;BME280;22989;55.998;37.212;2023-04-26T02:55:32;116983.66;;;-145.39;57.23
37078;BME280;22989;55.998;37.212;2023-04-26T02:57:58;116983.66;;;-145.39;57.36
37078;BME280;22989;55.998;37.212;2023-04-26T03:00:23;116983.66;;;-145.39;57.65
37078;BME280;22989;55.998;37.212;2023-04-26T03:02:49;116983.66;;;-145.39;57.70
37078;BME280;22989;55.998;37.212;2023-04-26T03:05:16;116983.66;;;-145.39;57.85
37078;BME280;22989;55.998;37.212;2023-04-26T03:07:42;116983.66;;;-145.39;58.00
37078;BME280;22989;55.998;37.212;2023-04-26T03:10:07;116983.66;;;-145.39;58.23
37078;BME280;22989;55.998;37.212;2023-04-26T03:12:34;116983.66;;;-145.39;58.36
37078;BME280;22989;55.998;37.212;2023-04-26T03:15:01;116983.66;;;-145.39;58.21
37078;BME280;22989;55.998;37.212;2023-04-26T03:17:28;116983.66;;;-145.39;58.19
37078;BME280;22989;55.998;37.212;2023-04-26T03:19:54;116983.66;;;-145.39;58.01
37078;BME280;22989;55.998;37.212;2023-04-26T03:22:20;116983.66;;;-145.39;58.03
37078;BME280;22989;55.998;37.212;2023-04-26T03:24:45;116983.66;;;-145.39;57.69
37078;BME280;22989;55.998;37.212;2023-04-26T03:27:12;116983.66;;;-145.39;57.74
37078;BME280;22989;55.998;37.212;2023-04-26T03:29:37;116983.66;;;-145.39;57.76
37078;BME280;22989;55.998;37.212;2023-04-26T03:32:03;116983.66;;;-145.39;57.84
37078;BME280;22989;55.998;37.212;2023-04-26T03:34:28;116983.66;;;-145.39;57.67
37078;BME280;22989;55.998;37.212;2023-04-26T03:36:55;116983.66;;;-145.39;57.78
37078;BME280;22989;55.998;37.212;2023-04-26T03:39:21;116983.66;;;-145.39;57.64
37078;BME280;22989;55.998;37.212;2023-04-26T03:41:46;116983.66;;;-145.39;57.70
37078;BME280;22989;55.998;37.212;2023-04-26T03:44:12;116983.66;;;-145.39;57.69
37078;BME280;22989;55.998;37.212;2023-04-26T03:46:38;116983.66;;;-145.39;57.91
37078;BME280;22989;55.998;37.212;2023-04-26T03:49:04;116983.66;;;-145.39;57.79
37078;BME280;22989;55.998;37.212;2023-04-26T03:51:29;116983.66;;;-145.39;57.84
37078;BME280;22989;55.998;37.212;2023-04-26T03:53:55;116983.66;;;-145.39;57.75
37078;BME280;22989;55.998;37.212;2023-04-26T03:56:21;116983.66;;;-145.39;57.95
37078;BME280;22989;55.998;37.212;2023-04-26T03:58:47;116983.66;;;-145.39;57.95
37078;BME280;22989;55.998;37.212;2023-04-26T04:01:13;116983.66;;;-145.39;57.81
37078;BME280;22989;55.998;37.212;2023-04-26T04:03:40;116983.66;;;-145.39;57.72
37078;BME280;22989;55.998;37.212;2023-04-26T04:06:05;116983.66;;;-145.39;57.41
37078;BME280;22989;55.998;37.212;2023-04-26T04:08:30;116983.66;;;-145.39;57.46
37078;BME280;22989;55.998;37.212;2023-04-26T04:10:56;116983.66;;;-145.39;57.46
37078;BME280;22989;55.998;37.212;2023-04-26T04:13:22;116983.66;;;-145.39;57.46
37078;BME280;22989;55.998;37.212;2023-04-26T04:15:48;116983.66;;;-145.39;57.48
37078;BME280;22989;55.998;37.212;2023-04-26T04:18:13;116983.66;;;-145.39;57.46
37078;BME280;22989;55.998;37.212;2023-04-26T04:20:42;116983.66;;;-145.39;57.53
37078;BME280;22989;55.998;37.212;2023-04-26T04:23:08;116983.66;;;-145.39;57.58
37078;BME280;22989;55.998;37.212;2023-04-26T04:25:35;116983.66;;;-145.39;57.51
37078;BME280;22989;55.998;37.212;2023-04-26T04:28:05;116983.66;;;-145.39;57.33
37078;BME280;22989;55.998;37.212;2023-04-26T04:30:31;116983.66;;;-145.39;57.14
37078;BME280;22989;55.998;37.212;2023-04-26T04:32:57;116983.66;;;-145.39;57.44
37078;BME280;22989;55.998;37.212;2023-04-26T04:35:25;116983.66;;;-145.39;57.24
37078;BME280;22989;55.998;37.212;2023-04-26T04:37:58;116983.66;;;-145.39;57.27
37078;BME280;22989;55.998;37.212;2023-04-26T04:40:24;116983.66;;;-145.39;57.61
37078;BME280;22989;55.998;37.212;2023-04-26T04:42:50;116983.66;;;-145.39;57.35
37078;BME280;22989;55.998;37.212;2023-04-26T04:45:18;116983.66;;;-145.39;57.65
37078;BME280;22989;55.998;37.212;2023-04-26T04:47:44;116983.66;;;-145.39;57.55
37078;BME280;22989;55.998;37.212;2023-04-26T04:50:09;116983.66;;;-145.39;57.68
37078;BME280;22989;55.998;37.212;2023-04-26T04:52:35;116983.66;;;-145.39;57.60
37078;BME280;22989;55.998;37.212;2023-04-26T04:55:01;116983.66;;;-145.39;57.80
37078;BME280;22989;55.998;37.212;2023-04-26T04:57:28;116983.66;;;-145.39;57.92
37078;BME280;22989;55.998;37.212;2023-04-26T04:59:54;116983.66;;;-145.39;57.95
37078;BME280;22989;55.998;37.212;2023-04-26T05:02:24;116983.66;;;-145.39;58.19
37078;BME280;22989;55.998;37.212;2023-04-26T05:04:51;116983.66;;;-145.39;58.24
37078;BME280;22989;55.998;37.212;2023-04-26T05:07:16;116983.66;;;-145.39;58.14
37078;BME280;22989;55.998;37.212;2023-04-26T05:09:43;116983.66;;;-145.39;58.35
37078;BME280;22989;55.998;37.212;2023-04-26T05:12:09;116983.66;;;-145.39;58.41
37078;BME280;22989;55.998;37.212;2023-04-26T05:14:35;116983.66;;;-145.39;58.58
37078;BME280;22989;55.998;37.212;2023-04-26T05:17:00;116983.66;;;-145.39;58.28
37078;BME280;22989;55.998;37.212;2023-04-26T05:19:26;116983.66;;;-145.39;58.29
37078;BME280;22989;55.998;37.212;2023-04-26T05:21:52;116983.66;;;-145.39;58.29
37078;BME280;22989;55.998;37.212;2023-04-26T05:24:18;116983.66;;;-145.39;58.18
37078;BME280;22989;55.998;37.212;2023-04-26T05:26:43;116983.66;;;-145.39;58.39
37078;BME280;22989;55.998;37.212;2023-04-26T05:29:28;116983.66;;;-145.39;58.55
37078;BME280;22989;55.998;37.212;2023-04-26T05:32:14;116983.66;;;-145.39;58.71
37078;BME280;22989;55.998;37.212;2023-04-26T05:34:49;116983.66;;;-145.39;58.64
37078;BME280;22989;55.998;37.212;2023-04-26T05:37:15;116983.66;;;-145.39;58.60
37078;BME280;22989;55.998;37.212;2023-04-26T05:39:41;116983.66;;;-145.39;58.75
37078;BME280;22989;55.998;37.212;2023-04-26T05:42:08;116983.66;;;-145.39;58.69
37078;BME280;22989;55.998;37.212;2023-04-26T05:44:34;116983.66;;;-145.39;58.53
37078;BME280;22989;55.998;37.212;2023-04-26T05:47:00;116983.66;;;-145.39;58.25
37078;BME280;22989;55.998;37.212;2023-04-26T05:49:26;116983.66;;;-145.39;58.46
37078;BME280;22989;55.998;37.212;2023-04-26T05:51:54;116983.66;;;-145.39;58.29
37078;BME280;22989;55.998;37.212;2023-04-26T05:54:20;116983.66;;;-145.39;58.32
37078;BME280;22989;55.998;37.212;2023-04-26T05:56:46;116983.66;;;-145.39;58.09
37078;BME280;22989;55.998;37.212;2023-04-26T05:59:12;116983.66;;;-145.39;57.85
37078;BME280;22989;55.998;37.212;2023-04-26T06:01:37;116983.66;;;-145.39;57.83
37078;BME280;22989;55.998;37.212;2023-04-26T06:04:03;116983.66;;;-145.39;57.53
37078;BME280;22989;55.998;37.212;2023-04-26T06:06:37;116983.66;;;-145.39;57.21
37078;BME280;22989;55.998;37.212;2023-04-26T06:09:02;116983.66;;;-145.39;56.89
37078;BME280;22989;55.998;37.212;2023-04-26T06:11:28;116983.66;;;-145.39;56.80
37078;BME280;22989;55.998;37.212;2023-04-26T06:13:54;116983.66;;;-145.39;56.74
37078;BME280;22989;55.998;37.212;2023-04-26T06:16:21;116983.66;;;-145.39;56.49
37078;BME280;22989;55.998;37.212;2023-04-26T06:18:46;116983.66;;;-145.39;56.67
37078;BME280;22989;55.998;37.212;2023-04-26T06:21:12;116983.66;;;-145.39;56.66
37078;BME280;22989;55.998;37.212;2023-04-26T06:23:37;116983.66;;;-145.39;56.40
37078;BME280;22989;55.998;37.212;2023-04-26T06:26:03;116983.66;;;-145.39;56.48
37078;BME280;22989;55.998;37.212;2023-04-26T06:28:28;116983.66;;;-145.39;56.43
37078;BME280;22989;55.998;37.212;2023-04-26T06:30:54;116983.66;;;-145.39;56.46
37078;BME280;22989;55.998;37.212;2023-04-26T06:33:19;116983.66;;;-145.39;56.51
37078;BME280;22989;55.998;37.212;2023-04-26T06:35:45;116983.66;;;-145.39;56.39
37078;BME280;22989;55.998;37.212;2023-04-26T06:38:12;116983.66;;;-145.39;56.22
37078;BME280;22989;55.998;37.212;2023-04-26T06:40:37;116983.66;;;-145.39;56.34
37078;BME280;22989;55.998;37.212;2023-04-26T06:43:03;116983.66;;;-145.39;56.39
37078;BME280;22989;55.998;37.212;2023-04-26T06:45:37;116983.66;;;-145.39;56.31
37078;BME280;22989;55.998;37.212;2023-04-26T06:48:03;116983.66;;;-145.39;56.27
37078;BME280;22989;55.998;37.212;2023-04-26T06:50:31;116983.66;;;-145.39;56.33
37078;BME280;22989;55.998;37.212;2023-04-26T06:52:56;116983.66;;;-145.39;56.00
37078;BME280;22989;55.998;37.212;2023-04-26T06:55:22;116983.66;;;-145.39;55.96
37078;BME280;22989;55.998;37.212;2023-04-26T06:57:48;116983.66;;;-145.39;55.88
37078;BME280;22989;55.998;37.212;2023-04-26T07:00:14;116983.66;;;-145.39;56.07
37078;BME280;22989;55.998;37.212;2023-04-26T07:02:39;116983.66;;;-145.39;55.88
37078;BME280;22989;55.998;37.212;2023-04-26T07:05:05;116983.66;;;-145.39;55.99
37078;BME280;22989;55.998;37.212;2023-04-26T07:07:31;116983.66;;;-145.39;55.66
37078;BME280;22989;55.998;37.212;2023-04-26T07:09:56;116983.66;;;-145.39;55.92
37078;BME280;22989;55.998;37.212;2023-04-26T07:12:21;116983.66;;;-145.39;55.97
37078;BME280;22989;55.998;37.212;2023-04-26T07:14:47;116983.66;;;-145.39;55.96
37078;BME280;22989;55.998;37.212;2023-04-26T07:17:12;116983.66;;;-145.39;55.68
37078;BME280;22989;55.998;37.212;2023-04-26T07:19:38;116983.66;;;-145.39;55.34
37078;BME280;22989;55.998;37.212;2023-04-26T07:22:03;116983.66;;;-145.39;55.00
37078;BME280;22989;55.998;37.212;2023-04-26T07:24:29;116983.66;;;-145.39;54.62
37078;BME280;22989;55.998;37.212;2023-04-26T07:26:55;116983.66;;;-145.39;54.49
37078;BME280;22989;55.998;37.212;2023-04-26T07:29:20;116983.66;;;-145.39;54.05
37078;BME280;22989;55.998;37.212;2023-04-26T07:31:47;116983.66;;;-145.39;53.74
37078;BME280;22989;55.998;37.212;2023-04-26T07:34:13;116983.66;;;-145.39;53.57
37078;BME280;22989;55.998;37.212;2023-04-26T07:36:38;116983.66;;;-145.39;53.22
37078;BME280;22989;55.998;37.212;2023-04-26T07:39:03;116983.66;;;-145.39;52.87
37078;BME280;22989;55.998;37.212;2023-04-26T07:41:30;116983.66;;;-145.39;52.35
37078;BME280;22989;55.998;37.212;2023-04-26T07:43:56;116983.66;;;-145.39;51.88
37078;BME280;22989;55.998;37.212;2023-04-26T07:46:22;116983.66;;;-145.39;51.84
37078;BME280;22989;55.998;37.212;2023-04-26T07:48:47;116983.66;;;-145.39;51.86
37078;BME280;22989;55.998;37.212;2023-04-26T07:51:12;116983.66;;;-145.39;51.84
37078;BME280;22989;55.998;37.212;2023-04-26T07:53:38;116983.66;;;-145.39;51.75
37078;BME280;22989;55.998;37.212;2023-04-26T07:56:04;116983.66;;;-145.39;51.71
37078;BME280;22989;55.998;37.212;2023-04-26T07:58:32;116983.66;;;-145.39;51.71
37078;BME280;22989;55.998;37.212;2023-04-26T08:00:57;116983.66;;;-145.39;51.54
37078;BME280;22989;55.998;37.212;2023-04-26T08:03:23;116983.66;;;-145.39;50.90
37078;BME280;22989;55.998;37.212;2023-04-26T08:05:48;116983.66;;;-145.39;50.94
37078;BME280;22989;55.998;37.212;2023-04-26T08:08:14;116983.66;;;-145.39;50.78
37078;BME280;22989;55.998;37.212;2023-04-26T08:10:40;116983.66;;;-145.39;50.82
37078;BME280;22989;55.998;37.212;2023-04-26T08:13:06;116983.66;;;-145.39;50.66
37078;BME280;22989;55.998;37.212;2023-04-26T08:15:31;116983.66;;;-145.39;50.59
37078;BME280;22989;55.998;37.212;2023-04-26T08:17:57;116983.66;;;-145.39;50.37
37078;BME280;22989;55.998;37.212;2023-04-26T08:20:22;116983.66;;;-145.39;50.66
37078;BME280;22989;55.998;37.212;2023-04-26T08:22:48;116983.66;;;-145.39;51.00
37078;BME280;22989;55.998;37.212;2023-04-26T08:25:13;116983.66;;;-145.39;51.33
37078;BME280;22989;55.998;37.212;2023-04-26T08:27:39;116983.66;;;-145.39;51.62
37078;BME280;22989;55.998;37.212;2023-04-26T08:30:05;116983.66;;;-145.39;51.57
37078;BME280;22989;55.998;37.212;2023-04-26T08:32:30;116983.66;;;-145.39;50.96
37078;BME280;22989;55.998;37.212;2023-04-26T08:34:58;116983.66;;;-145.39;50.63
37078;BME280;22989;55.998;37.212;2023-04-26T08:37:23;116983.66;;;-145.39;50.47
37078;BME280;22989;55.998;37.212;2023-04-26T08:39:49;116983.66;;;-145.39;50.46
37078;BME280;22989;55.998;37.212;2023-04-26T08:42:15;116983.66;;;-145.39;50.33
37078;BME280;22989;55.998;37.212;2023-04-26T08:44:41;116983.66;;;-145.39;50.26
37078;BME280;22989;55.998;37.212;2023-04-26T08:47:15;116983.66;;;-145.39;50.35
37078;BME280;22989;55.998;37.212;2023-04-26T08:49:41;116983.66;;;-145.39;50.52
37078;BME280;22989;55.998;37.212;2023-04-26T08:52:08;116983.66;;;-145.39;50.39
37078;BME280;22989;55.998;37.212;2023-04-26T08:54:35;116983.66;;;-145.39;50.29
37078;BME280;22989;55.998;37.212;2023-04-26T08:57:01;116983.66;;;-145.39;50.27
37078;BME280;22989;55.998;37.212;2023-04-26T08:59:28;116983.66;;;-145.39;50.11
37078;BME280;22989;55.998;37.212;2023-04-26T09:01:54;116983.66;;;-145.39;49.85
37078;BME280;22989;55.998;37.212;2023-04-26T09:04:19;116983.66;;;-145.39;49.46
37078;BME280;22989;55.998;37.212;2023-04-26T09:06:45;116983.66;;;-145.39;49.22
37078;BME280;22989;55.998;37.212;2023-04-26T09:09:11;116983.66;;;-145.39;48.84
37078;BME280;22989;55.998;37.212;2023-04-26T09:11:53;116983.66;;;-145.39;48.88
37078;BME280;22989;55.998;37.212;2023-04-26T09:14:20;116983.66;;;-145.39;48.67
37078;BME280;22989;55.998;37.212;2023-04-26T09:16:45;116983.66;;;-145.39;48.59
37078;BME280;22989;55.998;37.212;2023-04-26T09:19:11;116983.66;;;-145.39;47.99
37078;BME280;22989;55.998;37.212;2023-04-26T09:21:43;116983.66;;;-145.39;47.67
37078;BME280;22989;55.998;37.212;2023-04-26T09:24:10;116983.66;;;-145.39;47.49
37078;BME280;22989;55.998;37.212;2023-04-26T09:26:35;116983.66;;;-145.39;46.87
37078;BME280;22989;55.998;37.212;2023-04-26T09:29:14;116983.66;;;-145.39;46.74
37078;BME280;22989;55.998;37.212;2023-04-26T09:34:05;116983.66;;;-145.39;46.96
37078;BME280;22989;55.998;37.212;2023-04-26T09:36:31;116983.66;;;-145.39;46.88
37078;BME280;22989;55.998;37.212;2023-04-26T09:38:57;116983.66;;;-145.39;46.41
37078;BME280;22989;55.998;37.212;2023-04-26T09:41:22;116983.66;;;-145.39;46.58
37078;BME280;22989;55.998;37.212;2023-04-26T09:43:49;116983.66;;;-145.39;46.07
37078;BME280;22989;55.998;37.212;2023-04-26T09:46:20;116983.66;;;-145.39;46.07
37078;BME280;22989;55.998;37.212;2023-04-26T09:48:48;116983.66;;;-145.39;45.86
37078;BME280;22989;55.998;37.212;2023-04-26T09:51:24;116983.66;;;-145.39;45.76
37078;BME280;22989;55.998;37.212;2023-04-26T09:53:51;116983.66;;;-145.39;45.44
37078;BME280;22989;55.998;37.212;2023-04-26T09:56:20;116983.66;;;-145.39;44.91
37078;BME280;22989;55.998;37.212;2023-04-26T10:01:14;116983.66;;;-145.39;43.80
37078;BME280;22989;55.998;37.212;2023-04-26T10:03:42;116983.66;;;-145.39;43.29
37078;BME280;22989;55.998;37.212;2023-04-26T10:06:07;116983.66;;;-145.39;43.04
37078;BME280;22989;55.998;37.212;2023-04-26T10:08:33;116983.66;;;-145.39;42.63
37078;BME280;22989;55.998;37.212;2023-04-26T10:10:59;116983.66;;;-145.39;43.11
37078;BME280;22989;55.998;37.212;2023-04-26T10:13:30;116983.66;;;-145.39;43.62
37078;BME280;22989;55.998;37.212;2023-04-26T10:15:56;116983.66;;;-145.39;44.53
37078;BME280;22989;55.998;37.212;2023-04-26T10:18:22;116983.66;;;-145.39;45.23
37078;BME280;22989;55.998;37.212;2023-04-26T10:20:49;116983.66;;;-145.39;45.37
37078;BME280;22989;55.998;37.212;2023-04-26T10:23:21;116983.66;;;-145.39;45.55
37078;BME280;22989;55.998;37.212;2023-04-26T10:25:49;116983.66;;;-145.39;45.58
37078;BME280;22989;55.998;37.212;2023-04-26T10:28:16;116983.66;;;-145.39;45.72
37078;BME280;22989;55.998;37.212;2023-04-26T10:30:54;116983.66;;;-145.39;45.58
37078;BME280;22989;55.998;37.212;2023-04-26T10:33:20;116983.66;;;-145.39;45.38
37078;BME280;22989;55.998;37.212;2023-04-26T10:36:04;116983.66;;;-145.39;45.23
37078;BME280;22989;55.998;37.212;2023-04-26T10:38:30;116983.66;;;-145.39;44.74
37078;BME280;22989;55.998;37.212;2023-04-26T10:41:17;116983.66;;;-145.39;44.73
37078;BME280;22989;55.998;37.212;2023-04-26T10:43:41;116983.66;;;-145.39;44.27
37078;BME280;22989;55.998;37.212;2023-04-26T10:48:51;116983.66;;;-145.39;43.91
37078;BME280;22989;55.998;37.212;2023-04-26T10:51:16;116983.66;;;-145.39;43.82
37078;BME280;22989;55.998;37.212;2023-04-26T11:01:34;116983.66;;;-145.39;43.41
37078;BME280;22989;55.998;37.212;2023-04-26T11:04:04;116983.66;;;-145.39;43.36
37078;BME280;22989;55.998;37.212;2023-04-26T11:12:13;116983.66;;;-145.39;42.83
37078;BME280;22989;55.998;37.212;2023-04-26T11:14:42;116983.66;;;-145.39;42.63
37078;BME280;22989;55.998;37.212;2023-04-26T11:17:08;116983.66;;;-145.39;42.67
37078;BME280;22989;55.998;37.212;2023-04-26T11:19:34;116983.66;;;-145.39;42.58
37078;BME280;22989;55.998;37.212;2023-04-26T11:22:00;116983.66;;;-145.39;42.74
37078;BME280;22989;55.998;37.212;2023-04-26T11:24:26;116983.66;;;-145.39;42.60
37078;BME280;22989;55.998;37.212;2023-04-26T11:26:51;116983.66;;;-145.39;42.64
37078;BME280;22989;55.998;37.212;2023-04-26T11:29:18;116983.66;;;-145.39;42.77
37078;BME280;22989;55.998;37.212;2023-04-26T11:31:49;116983.66;;;-145.39;42.77
37078;BME280;22989;55.998;37.212;2023-04-26T11:34:14;116983.66;;;-145.39;42.77
37078;BME280;22989;55.998;37.212;2023-04-26T11:36:41;116983.66;;;-145.39;42.82
37078;BME280;22989;55.998;37.212;2023-04-26T11:39:08;116983.66;;;-145.39;42.59
37078;BME280;22989;55.998;37.212;2023-04-26T11:41:34;116983.66;;;-145.39;42.57
37078;BME280;22989;55.998;37.212;2023-04-26T11:43:59;116983.66;;;-145.39;42.50
37078;BME280;22989;55.998;37.212;2023-04-26T11:46:25;116983.66;;;-145.39;42.72
37078;BME280;22989;55.998;37.212;2023-04-26T11:48:50;116983.66;;;-145.39;42.65
37078;BME280;22989;55.998;37.212;2023-04-26T11:51:16;116983.66;;;-145.39;42.92
37078;BME280;22989;55.998;37.212;2023-04-26T11:53:42;116983.66;;;-145.39;43.27
37078;BME280;22989;55.998;37.212;2023-04-26T11:56:17;116983.66;;;-145.39;43.45
37078;BME280;22989;55.998;37.212;2023-04-26T11:58:44;116983.66;;;-145.39;43.42
37078;BME280;22989;55.998;37.212;2023-04-26T12:01:09;116983.66;;;-145.39;43.45
37078;BME280;22989;55.998;37.212;2023-04-26T12:03:35;116983.66;;;-145.39;43.51
37078;BME280;22989;55.998;37.212;2023-04-26T12:06:05;116983.66;;;-145.39;43.50
37078;BME280;22989;55.998;37.212;2023-04-26T12:08:30;116983.66;;;-145.39;43.13
37078;BME280;22989;55.998;37.212;2023-04-26T12:10:59;116983.66;;;-145.39;42.80
37078;BME280;22989;55.998;37.212;2023-04-26T12:13:26;116983.66;;;-145.39;42.47
37078;BME280;22989;55.998;37.212;2023-04-26T12:15:52;116983.66;;;-145.39;42.54
37078;BME280;22989;55.998;37.212;2023-04-26T12:18:18;116983.66;;;-145.39;42.62
37078;BME280;22989;55.998;37.212;2023-04-26T12:20:43;116983.66;;;-145.39;42.44
37078;BME280;22989;55.998;37.212;2023-04-26T12:23:14;116983.66;;;-145.39;42.12
37078;BME280;22989;55.998;37.212;2023-04-26T12:25:41;116983.66;;;-145.39;41.73
37078;BME280;22989;55.998;37.212;2023-04-26T12:28:15;116983.66;;;-145.39;41.71
37078;BME280;22989;55.998;37.212;2023-04-26T12:30:40;116983.66;;;-145.39;41.15
37078;BME280;22989;55.998;37.212;2023-04-26T12:33:06;116983.66;;;-145.39;40.99
37078;BME280;22989;55.998;37.212;2023-04-26T12:35:32;116983.66;;;-145.39;40.82
37078;BME280;22989;55.998;37.212;2023-04-26T12:37:58;116983.66;;;-145.39;40.34